87TA weather

Cielo Grande Ranch Airport
Mountain Home, Texas, United States

Public forecast

Using degrees Fahrenheit for public forecast. Weather courtesy of forecast.io.

Closest aviation weather report (METAR) to Cielo Grande Ranch Airport

Closest report is Kerrville Municipal Louis Schreiner Field, 15.9 nm (29.5 km) SE. Retrieved 2019/10/18 00:35 UTC (14 minutes ago):

KERV 180035Z AUTO 00000KT 10SM SCT085 21/02 A2994 RMK AO2 T02050020

Closest aviation forecast (TAF) to Cielo Grande Ranch Airport

Closest forecast is Kimble County Airport, 32.1 nm (59.4 km) NW. Retrieved 2019-10-18 00:22 UTC (27 minutes ago):

TAF KJCT 172320Z 1800/1824 12006KT P6SM SKC